• Husky braucht Bewegung

    Husky braucht Bewegung

    Unsere Husky hat einen neuen Motor bekommen und braucht nun etwas Bewegung, um wieder völlig einsatzbereit zu sein.

    Wir haben uns deshalb geopfert und in kleiner Runde einen Ausflug nach Zell am See gemacht.

    Der Flug führte auf direktem Wege

    zum Bericht
  • 1

Unser Programm für 2016

  • 1

WebCam

Kamera Halle
Kamera Vorplatz
Wetter EDDS

METAR

EDDS 312120Z 29006KT 9999 SCT044 BKN280 15/11 Q1014 =


TAF

EDDS 311700Z 3118/0118 26005KT 9999 SCT045 PROB30 TEMPO 0115/0118 SHRA BKN025TCU =


SR/SS

03:23 / 19:15 UTC
(EDSO 31-05-2016)

Austräger der GPS Triangle WM 2017